createdAt,value
2019-02-04T00:12:00.089Z,1.1
2019-02-04T00:27:04.478Z,1.1
2019-02-04T00:42:21.954Z,1
2019-02-04T00:57:32.872Z,1
2019-02-04T01:12:43.727Z,1
2019-02-04T01:27:54.659Z,0.8
2019-02-04T01:43:05.402Z,0.6
2019-02-04T01:58:16.244Z,0.5
2019-02-04T02:13:26.870Z,0.5
2019-02-04T02:28:37.566Z,0.5
2019-02-04T02:43:45.996Z,0.5
2019-02-04T02:58:59.870Z,0.7
2019-02-04T03:14:09.996Z,0.9
2019-02-04T03:29:20.807Z,1.1
2019-02-04T03:44:26.507Z,1.3
2019-02-04T03:59:42.823Z,1.2
2019-02-04T04:14:53.775Z,1.2
2019-02-04T04:30:04.721Z,1.2
2019-02-04T04:45:15.710Z,1.3
2019-02-04T05:00:26.757Z,1.3
2019-02-04T05:15:37.779Z,1.4
2019-02-04T05:30:48.949Z,1.4
2019-02-04T05:45:59.846Z,1.3
2019-02-04T06:01:09.728Z,1.2
2019-02-04T06:16:21.863Z,1.2
2019-02-04T06:31:32.787Z,1.1
2019-02-04T06:46:43.729Z,1.2
2019-02-04T07:01:48.730Z,1.1
2019-02-04T07:17:05.620Z,1.1
2019-02-04T07:32:16.540Z,1.4
2019-02-04T07:47:27.615Z,1.5
2019-02-04T08:02:29.074Z,1.7
2019-02-04T08:17:49.934Z,1.8
2019-02-04T08:33:01.228Z,1.9
2019-02-04T08:48:12.440Z,2
2019-02-04T09:03:23.782Z,2.2
2019-02-04T09:18:44.358Z,2.3
2019-02-04T09:33:46.555Z,2.4
2019-02-04T09:48:57.947Z,2.7
2019-02-04T10:04:09.666Z,3.5
2019-02-04T10:19:21.582Z,4
2019-02-04T10:34:33.511Z,4.6
2019-02-04T10:49:46.522Z,7.1
2019-02-04T11:05:01.226Z,6.8
2019-02-04T11:20:06.286Z,6.9
2019-02-04T11:35:31.332Z,7.1
2019-02-04T11:50:45.072Z,7.3
2019-02-04T12:05:58.488Z,7.6
2019-02-04T12:21:21.036Z,7.8
2019-02-04T12:36:25.891Z,7.8
2019-02-04T12:51:40.174Z,7.8
2019-02-04T13:06:54.381Z,7.8
2019-02-04T13:22:08.851Z,7.9
2019-02-04T13:37:23.568Z,7.9
2019-02-04T13:52:30.428Z,7.8
2019-02-04T14:07:52.860Z,7.5
2019-02-04T14:23:08.026Z,7.5
2019-02-04T14:38:21.784Z,8.4
2019-02-04T14:53:36.628Z,8.4
2019-02-04T15:08:43.046Z,7.7
2019-02-04T15:24:09.005Z,7.2
2019-02-04T15:39:22.438Z,6.5
2019-02-04T15:54:35.786Z,6.2
2019-02-04T16:09:48.411Z,5.6
2019-02-04T16:24:52.355Z,4.8
2019-02-04T16:40:13.068Z,4.2
2019-02-04T16:55:24.617Z,4.8
2019-02-04T17:10:36.872Z,4.2
2019-02-04T17:25:48.622Z,3.2
2019-02-04T17:40:58.791Z,2.8
2019-02-04T17:56:11.532Z,2.3
2019-02-04T18:11:22.764Z,2
2019-02-04T18:26:33.814Z,1.4
2019-02-04T18:41:38.160Z,1.1
2019-02-04T18:56:55.738Z,1.1
2019-02-04T19:12:06.641Z,1
2019-02-04T19:27:17.523Z,0.8
2019-02-04T19:42:28.293Z,0.5
2019-02-04T19:57:39.509Z,0.3
2019-02-04T20:12:49.633Z,0.1
2019-02-04T20:28:00.067Z,-0.2
2019-02-04T20:43:10.513Z,-0.3
2019-02-04T20:58:18.958Z,0.4
2019-02-04T21:13:31.933Z,0.4
2019-02-04T21:28:42.484Z,0
2019-02-04T21:43:52.972Z,0
2019-02-04T21:58:55.135Z,-0.1
2019-02-04T22:14:14.128Z,0.4
2019-02-04T22:29:24.693Z,-0.1
2019-02-04T22:44:36.965Z,-0.2
2019-02-04T22:59:46.035Z,-0.2
2019-02-04T23:14:56.247Z,-0.1
2019-02-04T23:30:06.713Z,-0.2
2019-02-04T23:45:17.128Z,-0.2
